Barcelona, Spain
Current Conditions -  °F | °C
As of 10:30 AM on Sunday 21 Dec 2014 (Local Time) from LEBL Reporting Station
Clear Clear  
Wind Chill:   Ceiling: Unl
Heat Index:   Visibility: 6mi
Dew Point:   Wind: 17mph
Humidity: 71%   Direction: 340°NNW
Pressure: 30.48"   Gusts: 30mph
Location:  41.39°N, 2.17°E
Report Text: LEBL 210930Z 34015G26KT 280V360 CAVOK 09/04 Q1032 NOSIG
Loading
Personal Weather Stations






























Interactive Weather Map New forecast layout! Learn more

10-Day Weather Forecast

Advertisements
Track Severe Weather on mobile